Time;durP1;ratioP1;P1;durP2;ratioP2;P2;SDS_P1;SDS_P2;PMS_P1;PMS_P2;Temp;Humidity;BMP_temperature;BMP_pressure;BME280_temperature;BME280_humidity;BME280_pressure;Samples;Min_cycle;Max_cycle;Signal;HPM_P1;HPM_P2
2021/10/02 00:35:14;;;;;;;;;;;;;;;11.04;65.36;100574.25;5013523;28;689;-71
2021/10/02 00:45:03;;;;;;;;;;;;;;;10.96;65.64;100556.78;5013169;28;653;-70
2021/10/02 00:47:33;;;;;;;;;;;;;;;10.94;65.68;100547.31;5012957;28;837;-69
2021/10/02 00:50:05;;;;;;;;;;;;;;;10.93;65.68;100542.97;5012816;28;894;-71
2021/10/02 00:52:31;;;;;;;;;;;;;;;10.91;65.64;100535.06;5012877;28;834;-70
2021/10/02 00:54:58;;;;;;;;;;;;;;;10.93;65.57;100538.22;5013043;28;862;-70
2021/10/02 00:57:25;;;;;;;;;;;;;;;10.90;65.63;100538.97;5012678;28;870;-70
2021/10/02 00:59:53;;;;;;;;;;;;;;;10.91;65.15;100539.78;5012644;28;1890;-67
2021/10/02 01:05:51;;;;;;;;;;;;;;;10.87;65.56;100539.75;4952272;29;1053;-70
2021/10/02 01:08:37;;;;;;;;;;;;;;;10.84;65.34;100543.31;4952150;29;899;-70
2021/10/02 01:11:19;;;;;;;;;;;;;;;10.86;65.61;100556.72;4952120;29;883;-71
2021/10/02 01:25:59;;;;;;;;;;;;;;;10.82;65.78;100554.75;4951827;28;1038;-70
2021/10/02 01:28:27;;;;;;;;;;;;;;;10.80;65.73;100548.03;4952359;29;851;-71
2021/10/02 01:33:35;;;;;;;;;;;;;;;10.80;65.76;100539.72;4951729;29;1327;-70
2021/10/02 01:36:17;;;;;;;;;;;;;;;10.79;65.28;100540.91;4951787;29;914;-70
2021/10/02 01:47:13;;;;;;;;;;;;;;;10.78;64.97;100542.09;5012059;28;625;-70
2021/10/02 01:49:41;;;;;;;;;;;;;;;10.82;65.02;100537.38;5011991;28;897;-70
2021/10/02 01:52:09;;;;;;;;;;;;;;;10.87;64.77;100537.00;5012121;28;976;-70
2021/10/02 01:54:41;;;;;;;;;;;;;;;10.88;64.90;100540.56;5011933;28;815;-70
2021/10/02 01:57:11;;;;;;;;;;;;;;;10.93;64.68;100545.72;5012003;28;870;-71
2021/10/02 01:59:38;;;;;;;;;;;;;;;10.90;64.33;100532.66;5011864;28;1890;-70
2021/10/02 02:02:06;;;;;;;;;;;;;;;10.93;64.41;100534.66;5011321;28;890;-71
2021/10/02 02:16:44;;;;;;;;;;;;;;;10.82;64.25;100524.34;5012173;28;646;-70
2021/10/02 02:19:12;;;;;;;;;;;;;;;10.83;64.36;100523.13;4994242;28;1976;-70
2021/10/02 02:21:38;;;;;;;;;;;;;;;10.85;64.51;100527.50;5011779;28;890;-70
2021/10/02 02:24:06;;;;;;;;;;;;;;;10.82;64.11;100521.56;5011659;28;828;-71
2021/10/02 02:26:31;;;;;;;;;;;;;;;10.83;64.10;100525.91;5011622;28;850;-70
2021/10/02 02:41:41;;;;;;;;;;;;;;;10.89;63.75;100542.16;5010009;28;1430;-70
2021/10/02 02:44:07;;;;;;;;;;;;;;;10.84;63.25;100532.25;5011415;28;831;-70
2021/10/02 02:46:36;;;;;;;;;;;;;;;10.85;63.23;100536.59;5011399;28;1044;-70
2021/10/02 02:49:06;;;;;;;;;;;;;;;10.86;63.56;100537.38;5011637;28;855;-71
2021/10/02 02:51:59;;;;;;;;;;;;;;;10.85;63.14;100536.59;4993767;28;2324;-70
2021/10/02 02:54:38;;;;;;;;;;;;;;;10.86;63.42;100535.44;5008731;28;1043;-70
2021/10/02 02:57:28;;;;;;;;;;;;;;;10.85;63.22;100533.81;5011327;28;862;-71
2021/10/02 03:00:13;;;;;;;;;;;;;;;10.86;63.08;100526.31;4993627;28;1910;-70
2021/10/02 03:02:42;;;;;;;;;;;;;;;10.85;62.89;100533.03;5011305;28;838;-70
2021/10/02 03:05:10;;;;;;;;;;;;;;;10.83;62.71;100525.13;5011283;28;799;-70
2021/10/02 03:07:54;;;;;;;;;;;;;;;10.83;62.96;100528.66;5011307;28;795;-70
2021/10/02 03:10:21;;;;;;;;;;;;;;;10.82;62.71;100534.59;5011173;28;890;-70
2021/10/02 03:24:59;;;;;;;;;;;;;;;10.76;62.62;100538.91;5014941;28;632;-71
2021/10/02 03:27:28;;;;;;;;;;;;;;;10.77;62.40;100540.50;5014558;28;897;-70
2021/10/02 03:29:56;;;;;;;;;;;;;;;10.76;62.56;100539.69;5014433;28;1017;-70
2021/10/02 03:35:32;;;;;;;;;;;;;;;10.75;62.40;100540.91;5013858;28;1040;-70
2021/10/02 03:38:00;;;;;;;;;;;;;;;10.73;62.49;100537.72;5014199;28;826;-70
2021/10/02 03:40:28;;;;;;;;;;;;;;;10.75;62.15;100540.91;5013999;28;1890;-71
2021/10/02 03:42:56;;;;;;;;;;;;;;;10.78;62.43;100537.34;5014244;28;799;-71
2021/10/02 03:57:35;;;;;;;;;;;;;;;10.73;62.35;100543.25;5014253;28;598;-70
2021/10/02 04:00:00;;;;;;;;;;;;;;;10.73;62.17;100543.25;5013751;28;1980;-70
2021/10/02 04:02:26;;;;;;;;;;;;;;;10.75;62.36;100546.44;5013812;28;826;-71
2021/10/02 04:04:53;;;;;;;;;;;;;;;10.58;62.49;100522.19;5013813;28;818;-70
2021/10/02 04:07:20;;;;;;;;;;;;;;;10.70;62.85;100549.53;5013852;28;937;-71
2021/10/02 04:09:46;;;;;;;;;;;;;;;10.65;62.64;100546.34;5013890;28;822;-70
2021/10/02 04:12:13;;;;;;;;;;;;;;;10.69;62.49;100542.44;5013821;28;867;-70
2021/10/02 04:14:41;;;;;;;;;;;;;;;10.67;62.88;100549.50;4996298;28;1086;-70
2021/10/02 04:17:09;;;;;;;;;;;;;;;10.67;62.57;100552.28;5013922;28;799;-70
2021/10/02 04:19:37;;;;;;;;;;;;;;;10.65;62.48;100552.69;5013371;28;1953;-70
2021/10/02 04:22:04;;;;;;;;;;;;;;;10.69;62.24;100547.97;5013432;28;827;-70
2021/10/02 04:24:30;;;;;;;;;;;;;;;10.70;62.16;100549.53;5013460;28;807;-70
2021/10/02 04:26:59;;;;;;;;;;;;;;;10.71;61.97;100547.56;5013025;28;818;-71
2021/10/02 04:29:27;;;;;;;;;;;;;;;10.72;61.79;100562.97;5013316;28;819;-70
2021/10/02 04:31:54;;;;;;;;;;;;;;;10.71;61.88;100551.13;5013105;28;900;-70
2021/10/02 04:34:21;;;;;;;;;;;;;;;10.73;61.83;100550.72;5013244;28;807;-70
2021/10/02 04:36:48;;;;;;;;;;;;;;;10.74;61.82;100561.41;4995694;28;1295;-70
2021/10/02 04:39:14;;;;;;;;;;;;;;;10.73;61.86;100561.78;5013019;28;1955;-70
2021/10/02 04:41:40;;;;;;;;;;;;;;;10.75;61.77;100556.66;5012894;28;1250;-70
2021/10/02 04:44:06;;;;;;;;;;;;;;;10.73;61.74;100554.31;5013058;28;858;-70
2021/10/02 04:46:33;;;;;;;;;;;;;;;10.73;61.76;100564.56;5012967;28;870;-69
2021/10/02 04:49:01;;;;;;;;;;;;;;;10.76;61.63;100561.03;5012978;28;799;-70
2021/10/02 04:51:27;;;;;;;;;;;;;;;10.77;61.71;100563.41;5012990;28;843;-70
2021/10/02 04:53:54;;;;;;;;;;;;;;;10.79;61.23;100563.03;5012734;28;788;-70
2021/10/02 04:56:21;;;;;;;;;;;;;;;10.83;61.28;100558.31;5012849;28;839;-70
2021/10/02 04:58:47;;;;;;;;;;;;;;;10.84;60.99;100559.91;5012682;28;1918;-71
2021/10/02 05:01:14;;;;;;;;;;;;;;;10.88;61.15;100559.91;4995215;28;1469;-70
2021/10/02 05:03:41;;;;;;;;;;;;;;;10.89;60.78;100551.25;5012934;28;857;-70
2021/10/02 05:06:08;;;;;;;;;;;;;;;10.91;60.65;100553.63;5012738;28;838;-70
2021/10/02 05:08:35;;;;;;;;;;;;;;;10.99;60.30;100546.97;5012759;28;841;-69
2021/10/02 05:16:45;;;;;;;;;;;;;;;11.17;59.68;100545.03;6114381;23;1656;-62
2021/10/02 05:19:12;;;;;;;;;;;;;;;11.20;59.49;100546.25;4972706;28;1915;-61
2021/10/02 05:21:38;;;;;;;;;;;;;;;11.29;59.44;100545.88;4973375;28;811;-61
2021/10/02 05:24:04;;;;;;;;;;;;;;;11.27;59.63;100554.59;4973264;28;874;-60
2021/10/02 05:26:43;;;;;;;;;;;;;;;11.28;59.37;100553.41;4973452;28;878;-60
2021/10/02 05:29:10;;;;;;;;;;;;;;;11.29;59.47;100554.19;4973227;28;877;-61
2021/10/02 05:31:38;;;;;;;;;;;;;;;11.33;59.64;100572.41;4973220;28;807;-60
2021/10/02 05:34:05;;;;;;;;;;;;;;;11.34;59.59;100557.38;4955804;28;1265;-61
2021/10/02 05:39:33;;;;;;;;;;;;;;;11.39;59.48;100576.41;4973124;28;1914;-60
2021/10/02 05:42:00;;;;;;;;;;;;;;;11.42;59.30;100570.06;4973136;28;866;-60
2021/10/02 05:48:01;;;;;;;;;;;;;;;11.56;58.81;100566.53;4973228;28;693;-61
2021/10/02 06:03:05;;;;;;;;;;;;;;;11.69;57.97;100563.41;4973170;28;700;-61
2021/10/02 06:05:33;;;;;;;;;;;;;;;11.68;57.89;100572.94;4972809;28;847;-61
2021/10/02 06:07:59;;;;;;;;;;;;;;;11.65;58.56;100564.22;4972698;28;812;-61
2021/10/02 06:10:29;;;;;;;;;;;;;;;11.69;58.09;100577.28;4972658;28;1020;-60
2021/10/02 06:12:58;;;;;;;;;;;;;;;11.67;58.37;100572.13;4972974;28;799;-61
2021/10/02 06:15:25;;;;;;;;;;;;;;;11.66;58.38;100576.06;4972674;28;788;-60
2021/10/02 06:17:52;;;;;;;;;;;;;;;11.68;58.33;100572.94;4981484;28;1188;-60
2021/10/02 06:20:19;;;;;;;;;;;;;;;11.71;58.63;100566.59;4992034;28;1910;-61
2021/10/02 06:22:46;;;;;;;;;;;;;;;11.77;58.24;100565.81;4991951;28;882;-60
2021/10/02 06:28:26;;;;;;;;;;;;;;;11.89;57.73;100573.00;4983205;28;1231;-61
2021/10/02 06:43:04;;;;;;;;;;;;;;;12.36;56.86;100579.38;4992233;28;614;-61
2021/10/02 06:45:30;;;;;;;;;;;;;;;12.52;57.02;100576.19;4991741;28;803;-60
2021/10/02 06:47:57;;;;;;;;;;;;;;;12.70;56.62;100583.75;4992091;28;866;-61
2021/10/02 06:50:27;;;;;;;;;;;;;;;12.76;55.92;100580.16;4978081;28;1186;-61
2021/10/02 07:08:06;;;;;;;;;;;;;;;13.10;55.11;100584.44;4995278;28;606;-61
2021/10/02 07:10:32;;;;;;;;;;;;;;;13.24;55.52;100576.06;4995425;28;794;-61
2021/10/02 07:12:59;;;;;;;;;;;;;;;13.42;54.87;100576.84;4995749;28;807;-61
2021/10/02 07:15:26;;;;;;;;;;;;;;;13.53;54.70;100581.53;4995266;28;864;-60
2021/10/02 07:30:06;;;;;;;;;;;;;;;14.89;51.29;100586.94;4995225;28;696;-61
2021/10/02 07:32:33;;;;;;;;;;;;;;;15.06;51.26;100587.16;4994934;28;807;-61
2021/10/02 07:34:59;;;;;;;;;;;;;;;15.06;50.48;100584.38;4994730;28;889;-61
